createdAt,value
2023-03-02T00:02:12.308Z,99785.41
2023-03-02T00:04:46.159Z,99780.63
2023-03-02T00:07:18.582Z,99786.00
2023-03-02T00:09:50.393Z,99788.81
2023-03-02T00:12:19.623Z,99787.19
2023-03-02T00:14:48.700Z,99784.81
2023-03-02T00:17:19.016Z,99780.84
2023-03-02T00:19:50.816Z,99783.63
2023-03-02T00:22:20.102Z,99782.03
2023-03-02T00:24:49.090Z,99785.63
2023-03-02T00:27:22.509Z,99779.03
2023-03-02T00:29:51.629Z,99777.25
2023-03-02T00:32:22.118Z,99780.03
2023-03-02T00:34:51.179Z,99775.88
2023-03-02T00:37:20.403Z,99776.84
2023-03-02T00:39:49.428Z,99775.88
2023-03-02T00:42:18.420Z,99769.06
2023-03-02T00:44:50.459Z,99767.69
2023-03-02T00:47:19.396Z,99765.28
2023-03-02T00:49:49.820Z,99762.91
2023-03-02T00:52:19.071Z,99760.50
2023-03-02T00:54:48.103Z,99752.94
2023-03-02T00:57:18.348Z,99755.72
2023-03-02T00:59:47.801Z,99749.38
2023-03-02T01:02:24.338Z,99747.16
2023-03-02T01:04:55.598Z,99745.78
2023-03-02T01:07:26.151Z,99741.00
2023-03-02T01:09:55.176Z,99739.81
2023-03-02T01:12:27.202Z,99748.56
2023-03-02T01:14:59.663Z,99732.63
2023-03-02T01:17:29.079Z,99732.06
2023-03-02T01:20:00.081Z,99733.03
2023-03-02T01:22:31.948Z,99724.69
2023-03-02T01:25:05.124Z,99729.25
2023-03-02T01:27:34.277Z,99728.25
2023-03-02T01:30:03.492Z,99726.66
2023-03-02T01:32:33.595Z,99716.94
2023-03-02T01:35:04.303Z,99712.75
2023-03-02T01:37:33.361Z,99716.31
2023-03-02T01:40:06.781Z,99710.56
2023-03-02T01:42:41.585Z,99708.00
2023-03-02T01:45:53.451Z,99703.97
2023-03-02T01:48:49.403Z,99709.97
2023-03-02T01:51:28.556Z,99699.63
2023-03-02T01:54:05.800Z,99701.22
2023-03-02T01:56:38.891Z,99702.00
2023-03-02T01:59:13.277Z,99699.63
2023-03-02T02:02:07.713Z,99687.72
2023-03-02T02:04:39.720Z,99685.13
2023-03-02T02:07:11.109Z,99678.16
2023-03-02T02:09:45.805Z,99678.16
2023-03-02T02:12:17.154Z,99672.22
2023-03-02T02:14:48.391Z,99684.50
2023-03-02T02:17:19.319Z,99682.94
2023-03-02T02:20:09.156Z,99681.94
2023-03-02T02:22:52.991Z,99677.75
2023-03-02T02:25:41.360Z,99676.75
2023-03-02T02:28:16.220Z,99670.00
2023-03-02T02:30:47.344Z,99673.38
2023-03-02T02:33:21.696Z,99675.00
2023-03-02T02:35:54.817Z,99670.59
2023-03-02T02:38:26.127Z,99673.97
2023-03-02T02:40:58.210Z,99674.19
2023-03-02T02:43:34.052Z,99670.59
2023-03-02T02:46:04.192Z,99671.78
2023-03-02T02:48:34.437Z,99673.59
2023-03-02T02:51:03.544Z,99677.16
2023-03-02T02:53:42.535Z,99671.22
2023-03-02T02:56:13.140Z,99668.81
2023-03-02T02:58:50.441Z,99671.41
2023-03-02T03:01:25.484Z,99678.53
2023-03-02T03:03:58.996Z,99678.53
2023-03-02T03:06:38.332Z,99677.91
2023-03-02T03:09:09.249Z,99676.34
2023-03-02T03:11:51.908Z,99680.72
2023-03-02T03:14:29.605Z,99668.97
2023-03-02T03:16:59.241Z,99679.13
2023-03-02T03:19:34.868Z,99685.09
2023-03-02T03:22:04.173Z,99691.25
2023-03-02T03:24:37.023Z,99676.72
2023-03-02T03:27:09.629Z,99680.13
2023-03-02T03:29:48.097Z,99682.50
2023-03-02T03:32:20.436Z,99677.34
2023-03-02T03:34:52.024Z,99671.38
2023-03-02T03:37:27.037Z,99673.16
2023-03-02T03:39:58.506Z,99667.19
2023-03-02T03:42:27.737Z,99670.78
2023-03-02T03:45:02.286Z,99672.56
2023-03-02T03:47:35.498Z,99676.16
2023-03-02T03:50:07.063Z,99676.16
2023-03-02T03:52:36.453Z,99670.16
2023-03-02T03:55:14.377Z,99671.75
2023-03-02T03:57:45.195Z,99669.38
2023-03-02T04:00:18.734Z,99677.31
2023-03-02T04:02:56.941Z,99677.53
2023-03-02T04:05:26.760Z,99674.34
2023-03-02T04:07:56.655Z,99666.97
2023-03-02T04:10:26.283Z,99662.81
2023-03-02T04:12:56.546Z,99661.19
2023-03-02T04:15:28.143Z,99669.34
2023-03-02T04:17:58.794Z,99668.53
2023-03-02T04:20:29.762Z,99667.34
2023-03-02T04:22:59.834Z,99670.13
2023-03-02T04:25:31.543Z,99671.50
2023-03-02T04:28:09.591Z,99678.25
2023-03-02T04:30:43.035Z,99679.84
2023-03-02T04:33:13.030Z,99669.69
2023-03-02T04:35:42.741Z,99677.63
2023-03-02T04:38:12.446Z,99676.84
2023-03-02T04:40:42.557Z,99679.63
2023-03-02T04:43:12.075Z,99677.25
2023-03-02T04:45:42.960Z,99686.94
2023-03-02T04:48:12.579Z,99684.38
2023-03-02T04:50:42.168Z,99683.59
2023-03-02T04:53:12.718Z,99680.34
2023-03-02T04:55:42.350Z,99673.63
2023-03-02T04:58:12.340Z,99677.16
2023-03-02T05:00:43.658Z,99676.38
2023-03-02T05:03:13.411Z,99685.91
2023-03-02T05:05:42.905Z,99688.69
2023-03-02T05:08:12.511Z,99688.09
2023-03-02T05:10:42.161Z,99678.72
2023-03-02T05:13:11.661Z,99670.03
2023-03-02T05:15:45.118Z,99671.78
2023-03-02T05:18:15.017Z,99677.97
2023-03-02T05:20:44.724Z,99671.00
2023-03-02T05:23:25.531Z,99669.41
2023-03-02T05:25:57.260Z,99667.81
2023-03-02T05:28:28.033Z,99683.50
2023-03-02T05:30:58.953Z,99671.56
2023-03-02T05:33:28.938Z,99671.56
2023-03-02T05:35:58.710Z,99670.78
2023-03-02T05:38:31.597Z,99666.81
2023-03-02T05:41:00.945Z,99679.09
2023-03-02T05:43:30.529Z,99679.09
2023-03-02T05:46:01.440Z,99669.59
2023-03-02T05:48:32.046Z,99681.69
2023-03-02T05:51:01.510Z,99688.63
2023-03-02T05:53:31.119Z,99686.22
2023-03-02T05:56:00.534Z,99692.00
2023-03-02T05:58:30.104Z,99681.88
2023-03-02T06:01:00.959Z,99685.44
2023-03-02T06:03:30.415Z,99684.63
2023-03-02T06:05:59.773Z,99686.59
2023-03-02T06:08:32.295Z,99688.97
2023-03-02T06:11:01.674Z,99682.41
2023-03-02T06:13:33.987Z,99686.78
2023-03-02T06:16:05.579Z,99686.19
2023-03-02T06:18:35.740Z,99692.75
2023-03-02T06:21:06.260Z,99693.91
2023-03-02T06:23:35.776Z,99705.22
2023-03-02T06:26:11.430Z,99692.31
2023-03-02T06:28:56.591Z,99699.47
2023-03-02T06:31:27.445Z,99701.22
2023-03-02T06:33:56.950Z,99707.78
2023-03-02T06:36:26.959Z,99707.19
2023-03-02T06:38:56.693Z,99712.38
2023-03-02T06:41:26.297Z,99703.63
2023-03-02T06:43:55.922Z,99709.59
2023-03-02T06:46:26.823Z,99710.75
2023-03-02T06:48:56.297Z,99715.53
2023-03-02T06:51:25.649Z,99712.94
2023-03-02T06:53:55.171Z,99713.56
2023-03-02T06:56:24.839Z,99716.72
2023-03-02T06:58:54.538Z,99721.53
2023-03-02T07:01:23.954Z,99729.06
2023-03-02T07:03:54.973Z,99711.81
2023-03-02T07:06:24.598Z,99717.19
2023-03-02T07:08:54.658Z,99718.44
2023-03-02T07:11:24.336Z,99731.72
2023-03-02T07:13:54.097Z,99723.22
2023-03-02T07:16:29.211Z,99722.84
2023-03-02T07:19:00.005Z,99710.78
2023-03-02T07:21:29.333Z,99715.41
2023-03-02T07:23:59.256Z,99724.94
2023-03-02T07:26:28.670Z,99714.63
2023-03-02T07:28:59.478Z,99717.44
2023-03-02T07:31:29.276Z,99713.88
2023-03-02T07:34:00.137Z,99709.53
2023-03-02T07:36:30.099Z,99707.19
2023-03-02T07:38:59.488Z,99710.56
2023-03-02T07:41:28.821Z,99713.16
2023-03-02T07:43:58.303Z,99723.09
2023-03-02T07:46:27.868Z,99721.53
2023-03-02T07:48:59.163Z,99726.34
2023-03-02T07:51:30.242Z,99713.00
2023-03-02T07:53:59.744Z,99712.03
2023-03-02T07:56:29.068Z,99713.22
2023-03-02T07:58:58.544Z,99706.84
2023-03-02T08:01:28.130Z,99706.66
2023-03-02T08:03:57.789Z,99709.03
2023-03-02T08:06:27.161Z,99701.84
2023-03-02T08:08:58.041Z,99705.06
2023-03-02T08:11:27.481Z,99700.47
2023-03-02T08:13:56.850Z,99709.41
2023-03-02T08:16:26.509Z,99705.38
2023-03-02T08:18:58.558Z,99707.94
2023-03-02T08:21:29.660Z,99710.69
2023-03-02T08:24:00.977Z,99698.72
2023-03-02T08:26:30.735Z,99700.66
2023-03-02T08:29:00.634Z,99700.19
2023-03-02T08:31:30.267Z,99696.75
2023-03-02T08:33:59.983Z,99692.84
2023-03-02T08:36:29.398Z,99695.97
2023-03-02T08:39:00.298Z,99691.50
2023-03-02T08:41:30.699Z,99691.41
2023-03-02T08:44:00.628Z,99686.13
2023-03-02T08:46:30.643Z,99689.16
2023-03-02T08:49:00.113Z,99686.69
2023-03-02T08:51:29.709Z,99684.97
2023-03-02T08:54:00.761Z,99676.25
2023-03-02T08:56:33.862Z,99678.72
2023-03-02T08:59:07.111Z,99673.38
2023-03-02T09:01:38.627Z,99666.03
2023-03-02T09:04:10.491Z,99655.28
2023-03-02T09:06:42.697Z,99663.47
2023-03-02T09:09:15.596Z,99665.22
2023-03-02T09:11:46.519Z,99663.47
2023-03-02T09:14:16.061Z,99653.88
2023-03-02T09:16:46.365Z,99658.44
2023-03-02T09:19:16.053Z,99662.19
2023-03-02T09:21:45.713Z,99659.97
2023-03-02T09:24:16.725Z,99660.13
2023-03-02T09:26:46.579Z,99657.25
2023-03-02T09:29:16.589Z,99659.63
2023-03-02T09:31:46.087Z,99656.13
2023-03-02T09:34:15.602Z,99659.03
2023-03-02T09:36:44.928Z,99660.91
2023-03-02T09:39:15.760Z,99658.06
2023-03-02T09:42:43.405Z,99659.25
2023-03-02T09:45:53.829Z,99653.38
2023-03-02T09:48:39.061Z,99649.00
2023-03-02T09:51:27.314Z,99644.88
2023-03-02T09:54:05.919Z,99652.25
2023-03-02T09:56:40.111Z,99651.81
2023-03-02T09:59:24.404Z,99660.16
2023-03-02T10:02:01.467Z,99660.69
2023-03-02T10:04:34.645Z,99649.63
2023-03-02T10:07:14.451Z,99643.56
2023-03-02T10:09:44.665Z,99641.69
2023-03-02T10:12:41.862Z,99653.94
2023-03-02T10:15:18.739Z,99656.44
2023-03-02T10:18:00.409Z,99641.69
2023-03-02T10:20:36.218Z,99643.72
2023-03-02T10:23:29.419Z,99640.22
2023-03-02T10:26:10.163Z,99642.47
2023-03-02T10:28:45.974Z,99639.66
2023-03-02T10:31:25.113Z,99641.91
2023-03-02T10:33:54.688Z,99636.22
2023-03-02T10:36:27.334Z,99634.72
2023-03-02T10:39:00.512Z,99641.13
2023-03-02T10:41:35.838Z,99632.25
2023-03-02T10:44:12.857Z,99642.56
2023-03-02T10:46:45.198Z,99641.31
2023-03-02T10:49:33.683Z,99635.84
2023-03-02T10:52:07.023Z,99628.81
2023-03-02T10:54:36.913Z,99622.00
2023-03-02T10:57:29.676Z,99618.34
2023-03-02T11:00:14.932Z,99622.06
2023-03-02T11:02:59.583Z,99611.00
2023-03-02T11:05:33.219Z,99605.47
2023-03-02T11:08:05.127Z,99600.22
2023-03-02T11:10:36.715Z,99598.91
2023-03-02T11:13:20.548Z,99598.91
2023-03-02T11:15:53.978Z,99603.59
2023-03-02T11:18:30.041Z,99596.19
2023-03-02T11:21:03.982Z,99596.69
2023-03-02T11:23:50.390Z,99581.34
2023-03-02T11:26:26.645Z,99596.88
2023-03-02T11:29:02.039Z,99591.84
2023-03-02T11:31:39.337Z,99593.13
2023-03-02T11:34:27.423Z,99575.44
2023-03-02T11:37:17.840Z,99583.28
2023-03-02T11:40:05.321Z,99577.41
2023-03-02T11:42:37.722Z,99582.09
2023-03-02T11:45:21.707Z,99576.00
2023-03-02T11:48:03.288Z,99577.78
2023-03-02T11:50:36.470Z,99577.94
2023-03-02T11:53:09.050Z,99568.09
2023-03-02T11:55:48.369Z,99563.81
2023-03-02T11:58:21.616Z,99576.13
2023-03-02T12:00:53.698Z,99569.47
2023-03-02T12:03:39.693Z,99557.50
2023-03-02T12:06:28.760Z,99558.22
2023-03-02T12:09:31.148Z,99544.88
2023-03-02T12:12:18.351Z,99537.34
2023-03-02T12:14:47.598Z,99536.44
2023-03-02T12:17:31.307Z,99547.50
2023-03-02T12:20:27.017Z,99541.50
2023-03-02T12:23:11.114Z,99541.63
2023-03-02T12:25:49.638Z,99539.38
2023-03-02T12:28:38.935Z,99534.25
2023-03-02T12:31:12.516Z,99538.81
2023-03-02T12:33:50.054Z,99536.00
2023-03-02T12:36:28.594Z,99540.59
2023-03-02T12:39:18.765Z,99525.94
2023-03-02T12:42:20.958Z,99532.38
2023-03-02T12:45:02.082Z,99535.16
2023-03-02T12:47:33.088Z,99529.97
2023-03-02T12:50:06.232Z,99521.66
2023-03-02T12:52:38.063Z,99522.84
2023-03-02T12:55:17.494Z,99518.19
2023-03-02T12:57:51.317Z,99513.50
2023-03-02T13:00:24.280Z,99518.31
2023-03-02T13:02:55.727Z,99511.28
2023-03-02T13:05:30.471Z,99510.28
2023-03-02T13:08:06.423Z,99507.72
2023-03-02T13:10:39.910Z,99504.56
2023-03-02T13:13:18.637Z,99515.88
2023-03-02T13:15:57.302Z,99513.00
2023-03-02T13:18:31.865Z,99508.00
2023-03-02T13:21:02.345Z,99507.25
2023-03-02T13:23:34.697Z,99507.50
2023-03-02T13:26:06.411Z,99495.66
2023-03-02T13:28:40.971Z,99509.03
2023-03-02T13:31:22.569Z,99494.59
2023-03-02T13:33:54.667Z,99491.97
2023-03-02T13:36:27.355Z,99492.72
2023-03-02T13:39:00.364Z,99493.47
2023-03-02T13:41:32.447Z,99496.06
2023-03-02T13:44:19.863Z,99494.47
2023-03-02T13:46:49.196Z,99487.09
2023-03-02T13:49:29.031Z,99490.19
2023-03-02T13:52:03.347Z,99485.19
2023-03-02T13:54:36.577Z,99486.72
2023-03-02T13:57:11.926Z,99476.72
2023-03-02T13:59:42.146Z,99485.34
2023-03-02T14:02:24.925Z,99476.13
2023-03-02T14:04:54.675Z,99478.44
2023-03-02T14:07:23.993Z,99476.03
2023-03-02T14:09:57.675Z,99474.44
2023-03-02T14:12:31.006Z,99488.53
2023-03-02T14:15:03.466Z,99475.09
2023-03-02T14:17:32.555Z,99480.53
2023-03-02T14:20:01.577Z,99472.66
2023-03-02T14:22:32.872Z,99474.72
2023-03-02T14:25:03.298Z,99471.28
2023-03-02T14:27:33.433Z,99471.22
2023-03-02T14:30:02.671Z,99470.16
2023-03-02T14:32:31.756Z,99471.44
2023-03-02T14:35:01.717Z,99474.00
2023-03-02T14:37:30.907Z,99468.75
2023-03-02T14:40:00.465Z,99470.81
2023-03-02T14:42:31.216Z,99467.13
2023-03-02T14:45:00.337Z,99469.47
2023-03-02T14:47:29.295Z,99468.13
2023-03-02T14:49:58.825Z,99470.69
2023-03-02T14:52:34.388Z,99469.13
2023-03-02T14:55:07.398Z,99457.56
2023-03-02T14:57:39.266Z,99463.31
2023-03-02T15:00:13.498Z,99460.66
2023-03-02T15:02:43.109Z,99458.75
2023-03-02T15:05:12.356Z,99448.56
2023-03-02T15:07:41.599Z,99456.88
2023-03-02T15:10:17.189Z,99461.09
2023-03-02T15:12:48.230Z,99464.19
2023-03-02T15:15:18.031Z,99464.66
2023-03-02T15:17:47.142Z,99458.34
2023-03-02T15:20:17.457Z,99467.75
2023-03-02T15:22:46.582Z,99467.97
2023-03-02T15:25:15.853Z,99455.41
2023-03-02T15:27:44.890Z,99471.34
2023-03-02T15:30:15.694Z,99464.78
2023-03-02T15:32:44.890Z,99469.69
2023-03-02T15:35:13.972Z,99470.19
2023-03-02T15:37:43.004Z,99469.66
2023-03-02T15:40:13.413Z,99467.53
2023-03-02T15:42:42.424Z,99466.97
2023-03-02T15:45:16.029Z,99465.41
2023-03-02T15:47:45.011Z,99473.47
2023-03-02T15:50:14.252Z,99465.09
2023-03-02T15:52:43.293Z,99468.97
2023-03-02T15:55:14.736Z,99468.44
2023-03-02T15:57:43.852Z,99468.94
2023-03-02T16:00:19.602Z,99466.81
2023-03-02T16:02:50.014Z,99470.97
2023-03-02T16:05:19.152Z,99472.78
2023-03-02T16:07:51.184Z,99479.53
2023-03-02T16:10:24.922Z,99481.56
2023-03-02T16:12:53.993Z,99479.19
2023-03-02T16:15:24.359Z,99477.63
2023-03-02T16:17:53.426Z,99483.34
2023-03-02T16:20:25.426Z,99487.00
2023-03-02T16:22:54.512Z,99480.16
2023-03-02T16:25:24.905Z,99485.38
2023-03-02T16:27:54.918Z,99482.25
2023-03-02T16:30:25.417Z,99486.69
2023-03-02T16:32:59.214Z,99482.50
2023-03-02T16:35:29.724Z,99483.53
2023-03-02T16:37:59.078Z,99491.59
2023-03-02T21:29:50.681Z,99720.75
2023-03-02T21:32:20.423Z,99733.50
2023-03-02T21:34:50.023Z,99727.53
2023-03-02T21:37:19.552Z,99687.84
2023-03-02T21:39:49.134Z,99716.72
2023-03-02T21:42:18.702Z,99715.97
2023-03-02T21:44:49.614Z,99737.91
2023-03-02T21:47:19.001Z,99719.78
2023-03-02T23:17:48.392Z,99735.69
2023-03-02T23:20:17.664Z,99736.72
2023-03-02T23:22:50.057Z,99729.91
2023-03-02T23:25:22.241Z,99731.13
2023-03-02T23:27:51.658Z,99733.91
2023-03-02T23:30:22.556Z,99736.91
2023-03-02T23:32:53.066Z,99735.53
2023-03-02T23:35:22.150Z,99735.72
2023-03-02T23:37:51.163Z,99748.66
2023-03-02T23:40:21.603Z,99744.50
2023-03-02T23:42:50.930Z,99744.88
2023-03-02T23:45:19.976Z,99750.25
2023-03-02T23:47:48.996Z,99746.25
2023-03-02T23:50:19.689Z,99751.44
2023-03-02T23:52:49.270Z,99746.47
2023-03-02T23:55:19.019Z,99745.03
2023-03-02T23:57:50.240Z,99748.81
